TimeHST,TemperatureF,Dew PointF,Humidity,Sea Level PressureIn,VisibilityMPH,Wind Direction,Wind SpeedMPH,Gust SpeedMPH,PrecipitationIn,Events,Conditions,WindDirDegrees,DateUTC
12:08 AM,66.2,62.6,88,29.98,10.0,WSW,5.8,-,N/A,,Scattered Clouds,240,2012-11-24 10:08:00
12:53 AM,66.0,60.1,81,29.97,10.0,WSW,6.9,-,N/A,,Scattered Clouds,240,2012-11-24 10:53:00
1:53 AM,66.0,59.0,78,29.96,10.0,SW,6.9,-,N/A,,Scattered Clouds,230,2012-11-24 11:53:00
2:53 AM,66.0,59.0,78,29.94,10.0,SW,6.9,-,N/A,,Scattered Clouds,220,2012-11-24 12:53:00
3:53 AM,64.9,59.0,81,29.94,10.0,SW,5.8,-,N/A,,Clear,220,2012-11-24 13:53:00
4:53 AM,64.0,59.0,84,29.94,10.0,SW,5.8,-,N/A,,Clear,230,2012-11-24 14:53:00
5:53 AM,64.9,59.0,81,29.95,10.0,SW,6.9,-,N/A,,Partly Cloudy,230,2012-11-24 15:53:00
6:53 AM,64.9,57.9,78,29.98,10.0,SW,6.9,-,N/A,,Partly Cloudy,230,2012-11-24 16:53:00
7:53 AM,69.1,61.0,75,30.00,10.0,WSW,6.9,-,N/A,,Partly Cloudy,240,2012-11-24 17:53:00
8:53 AM,75.9,66.0,71,30.01,10.0,Calm,Calm,-,N/A,,Partly Cloudy,0,2012-11-24 18:53:00
9:53 AM,79.0,68.0,69,30.01,10.0,North,5.8,-,N/A,,Partly Cloudy,360,2012-11-24 19:53:00
10:53 AM,80.1,69.1,69,29.99,10.0,NE,6.9,-,N/A,,Partly Cloudy,40,2012-11-24 20:53:00
11:53 AM,80.1,69.1,69,29.97,10.0,North,9.2,-,N/A,,Partly Cloudy,10,2012-11-24 21:53:00
12:53 PM,81.0,70.0,69,29.94,10.0,NNE,8.1,-,N/A,,Partly Cloudy,20,2012-11-24 22:53:00
1:53 PM,81.0,69.1,67,29.92,10.0,NE,10.4,-,N/A,,Partly Cloudy,40,2012-11-24 23:53:00
2:53 PM,80.1,69.1,69,29.91,10.0,ENE,10.4,-,N/A,,Partly Cloudy,60,2012-11-25 00:53:00
3:53 PM,78.1,68.0,71,29.92,10.0,NNE,8.1,-,N/A,,Scattered Clouds,30,2012-11-25 01:53:00
4:53 PM,75.9,68.0,76,29.93,10.0,NE,4.6,-,N/A,,Partly Cloudy,40,2012-11-25 02:53:00
5:53 PM,73.9,66.9,79,29.94,10.0,NE,3.5,-,N/A,,Partly Cloudy,40,2012-11-25 03:53:00
6:53 PM,73.9,66.9,79,29.96,10.0,NE,3.5,-,N/A,,Scattered Clouds,40,2012-11-25 04:53:00
7:53 PM,72.0,66.0,81,29.98,10.0,Calm,Calm,-,N/A,,Partly Cloudy,0,2012-11-25 05:53:00
8:23 PM,69.8,66.2,88,29.99,10.0,Calm,Calm,-,N/A,,Mostly Cloudy,0,2012-11-25 06:23:00
8:35 PM,69.8,66.2,88,29.99,10.0,Calm,Calm,-,N/A,,Scattered Clouds,0,2012-11-25 06:35:00
8:53 PM,71.1,66.9,87,30.00,10.0,Calm,Calm,-,N/A,,Mostly Cloudy,0,2012-11-25 06:53:00
9:43 PM,71.6,66.2,83,30.01,10.0,SW,4.6,-,N/A,,Scattered Clouds,230,2012-11-25 07:43:00
9:53 PM,71.1,66.0,84,30.01,10.0,SW,4.6,-,N/A,,Mostly Cloudy,230,2012-11-25 07:53:00
10:11 PM,69.8,64.4,83,30.01,10.0,SW,4.6,-,N/A,,Mostly Cloudy,230,2012-11-25 08:11:00
10:38 PM,69.8,64.4,83,30.01,10.0,SW,4.6,-,N/A,,Mostly Cloudy,230,2012-11-25 08:38:00
10:53 PM,69.1,64.0,84,30.01,7.0,Calm,Calm,-,0.00,Rain,Light Rain,0,2012-11-25 08:53:00
11:23 PM,69.8,64.4,83,30.00,8.0,SW,4.6,-,0.00,Rain,Light Rain,230,2012-11-25 09:23:00
11:53 PM,68.0,63.0,84,29.99,10.0,SW,5.8,-,0.00,,Mostly Cloudy,230,2012-11-25 09:53:00